Time;durP1;ratioP1;P1;durP2;ratioP2;P2;SDS_P1;SDS_P2;PMS_P1;PMS_P2;Temp;Humidity;BMP_temperature;BMP_pressure;BME280_temperature;BME280_humidity;BME280_pressure;Samples;Min_cycle;Max_cycle;Signal;HPM_P1;HPM_P2
2022/09/12 00:05:41;;;;;;;5.05;2.70;;;15.50;99.90;;;;;;20841650;28;20045;-80
2022/09/12 00:15:43;;;;;;;6.83;2.83;;;15.40;99.90;;;;;;20833672;28;20918;-80
2022/09/12 00:25:46;;;;;;;5.25;2.97;;;15.40;99.90;;;;;;20828018;28;20082;-79
2022/09/12 00:35:51;;;;;;;8.35;4.50;;;15.30;99.90;;;;;;20824073;28;20037;-80
2022/09/12 00:45:53;;;;;;;7.03;3.05;;;15.30;99.90;;;;;;20852093;28;20071;-79
2022/09/12 00:55:55;;;;;;;6.95;3.60;;;15.40;99.90;;;;;;20823631;28;20095;-79
2022/09/12 01:06:13;;;;;;;6.80;3.13;;;15.40;99.90;;;;;;20823035;28;20037;-79
2022/09/12 01:16:14;;;;;;;9.07;3.80;;;15.40;99.90;;;;;;20826644;28;20052;-79
2022/09/12 01:26:51;;;;;;;8.02;3.80;;;15.40;99.90;;;;;;20819478;28;20041;-80
2022/09/12 01:37:08;;;;;;;5.65;3.50;;;15.30;99.90;;;;;;20814744;28;20567;-79
2022/09/12 01:47:15;;;;;;;5.85;3.60;;;15.20;99.90;;;;;;20836491;28;20049;-79
2022/09/12 01:57:23;;;;;;;9.57;4.03;;;15.30;99.90;;;;;;20818546;28;20066;-79
2022/09/12 02:17:55;;;;;;;7.78;3.65;;;15.30;99.90;;;;;;20771386;22;20080;-37
2022/09/12 02:28:05;;;;;;;7.22;4.32;;;15.30;99.90;;;;;;20833277;28;20362;-37
2022/09/12 02:38:32;;;;;;;5.70;3.65;;;15.20;99.90;;;;;;20772234;28;20030;-37
2022/09/12 02:48:37;;;;;;;7.18;4.43;;;15.20;99.90;;;;;;20791434;28;20049;-37
2022/09/12 02:58:38;;;;;;;5.82;3.45;;;15.20;99.90;;;;;;20823185;28;20072;-38
2022/09/12 03:09:08;;;;;;;6.63;4.32;;;15.10;99.90;;;;;;20829194;28;21912;-37
2022/09/12 03:19:26;;;;;;;6.68;4.38;;;15.10;99.90;;;;;;20819489;28;20456;-37
2022/09/12 03:29:29;;;;;;;10.93;5.30;;;15.20;99.90;;;;;;20807316;28;20045;-37
2022/09/12 03:39:30;;;;;;;12.95;4.70;;;15.10;99.90;;;;;;20806161;28;20076;-37
2022/09/12 03:49:31;;;;;;;9.30;4.13;;;15.10;99.90;;;;;;20802790;28;20244;-37
2022/09/12 03:59:32;;;;;;;9.77;5.40;;;15.10;99.90;;;;;;20795400;28;20086;-37
2022/09/12 04:09:33;;;;;;;9.00;4.88;;;15.10;99.90;;;;;;20803523;28;20045;-37
2022/09/12 04:19:34;;;;;;;9.65;4.80;;;15.20;99.90;;;;;;20794448;28;20040;-37
2022/09/12 04:29:35;;;;;;;9.15;4.45;;;15.10;99.90;;;;;;20798372;28;20048;-37
2022/09/12 04:39:36;;;;;;;12.88;5.55;;;15.10;99.90;;;;;;20799067;28;20040;-37
2022/09/12 04:49:37;;;;;;;9.25;4.13;;;15.20;99.90;;;;;;20799036;28;20048;-37
2022/09/12 04:59:38;;;;;;;8.55;4.57;;;15.30;99.90;;;;;;20794057;28;20065;-37
2022/09/12 05:09:40;;;;;;;8.68;4.93;;;15.20;99.90;;;;;;20793752;28;21783;-37
2022/09/12 05:19:41;;;;;;;7.75;4.32;;;15.20;99.90;;;;;;20789714;28;20098;-37
2022/09/12 05:29:42;;;;;;;8.50;5.32;;;15.20;99.90;;;;;;20790215;28;20045;-37
2022/09/12 05:39:43;;;;;;;9.30;4.03;;;15.10;99.90;;;;;;20791049;28;20038;-37
2022/09/12 05:49:46;;;;;;;9.07;5.70;;;15.00;99.90;;;;;;20787066;28;20049;-37
2022/09/12 05:59:48;;;;;;;11.55;6.25;;;15.00;99.90;;;;;;20785890;28;20063;-37
2022/09/12 06:09:49;;;;;;;6.43;3.97;;;14.90;99.90;;;;;;20790554;28;20041;-37
2022/09/12 06:19:50;;;;;;;9.63;4.90;;;15.00;99.90;;;;;;20787638;28;20053;-37
2022/09/12 06:29:51;;;;;;;8.07;5.25;;;15.00;99.90;;;;;;20782400;28;20044;-37
2022/09/12 06:39:52;;;;;;;9.70;5.47;;;15.20;99.90;;;;;;20796101;28;20045;-37
2022/09/12 06:49:53;;;;;;;10.23;6.03;;;15.30;99.90;;;;;;20781940;28;20045;-37
2022/09/12 06:59:54;;;;;;;10.32;4.18;;;15.70;99.90;;;;;;20797973;28;20041;-37
2022/09/12 07:09:57;;;;;;;9.18;5.28;;;16.00;99.90;;;;;;20801035;28;20053;-37
2022/09/12 07:19:58;;;;;;;7.93;4.18;;;16.30;99.90;;;;;;20805967;28;20038;-37
2022/09/12 07:29:59;;;;;;;10.50;5.50;;;16.60;99.90;;;;;;20801639;28;20825;-37
2022/09/12 07:40:01;;;;;;;6.32;4.00;;;16.80;99.90;;;;;;20801681;28;20095;-37
2022/09/12 07:50:03;;;;;;;11.02;5.68;;;17.00;99.90;;;;;;20804353;28;20103;-37
2022/09/12 08:00:05;;;;;;;6.72;4.35;;;17.30;99.90;;;;;;20801996;28;20053;-37
2022/09/12 08:10:06;;;;;;;15.15;4.55;;;17.60;99.90;;;;;;20805351;28;20053;-37
2022/09/12 08:20:08;;;;;;;7.97;3.72;;;18.20;99.90;;;;;;20800316;28;20456;-37
2022/09/12 08:30:09;;;;;;;5.07;2.78;;;18.70;99.90;;;;;;20804035;28;20041;-37
2022/09/12 08:40:15;;;;;;;8.98;3.05;;;19.00;99.90;;;;;;20799036;28;20029;-37
2022/09/12 08:50:19;;;;;;;6.47;3.45;;;19.40;99.90;;;;;;20790651;28;20029;-38
2022/09/12 09:00:20;;;;;;;6.60;3.30;;;19.60;99.90;;;;;;20785183;28;20083;-38
2022/09/12 09:10:30;;;;;;;6.78;3.22;;;20.00;99.90;;;;;;20790797;28;20059;-38
2022/09/12 09:20:45;;;;;;;8.05;4.22;;;20.00;99.90;;;;;;20795277;28;20045;-37
2022/09/12 09:30:47;;;;;;;6.75;4.35;;;20.00;99.90;;;;;;20796916;28;21820;-37
2022/09/12 09:41:05;;;;;;;7.47;3.10;;;20.20;99.90;;;;;;20796113;28;20432;-37
2022/09/12 09:51:08;;;;;;;5.70;2.78;;;20.60;99.90;;;;;;20797445;28;20095;-37
2022/09/12 10:01:15;;;;;;;5.15;2.17;;;20.60;99.90;;;;;;20810047;28;20041;-37
2022/09/12 10:11:20;;;;;;;4.32;1.77;;;20.80;99.90;;;;;;20811891;28;20049;-37
2022/09/12 10:21:39;;;;;;;5.47;2.28;;;21.10;99.90;;;;;;20822942;28;20033;-37
2022/09/12 10:31:54;;;;;;;9.90;3.60;;;21.50;99.90;;;;;;20793804;28;20263;-38
2022/09/12 10:41:56;;;;;;;3.75;1.92;;;21.60;99.90;;;;;;20778397;28;20038;-38
2022/09/12 10:52:22;;;;;;;6.30;2.38;;;22.10;99.90;;;;;;20764323;28;20109;-38
2022/09/12 11:02:27;;;;;;;2.75;1.40;;;22.60;99.90;;;;;;20768982;28;20504;-37
2022/09/12 11:12:42;;;;;;;3.03;1.40;;;23.30;99.90;;;;;;20768046;28;20111;-38
2022/09/12 11:22:49;;;;;;;2.55;1.63;;;23.60;99.90;;;;;;20775017;28;21938;-37
2022/09/12 11:33:13;;;;;;;5.10;1.20;;;24.00;99.90;;;;;;20796901;28;20041;-38
2022/09/12 11:43:41;;;;;;;4.53;1.27;;;24.30;99.90;;;;;;20803776;28;20041;-38
2022/09/12 11:53:44;;;;;;;3.00;1.25;;;24.30;99.90;;;;;;20803387;28;20833;-38
2022/09/12 12:03:46;;;;;;;3.33;1.15;;;24.90;99.90;;;;;;20797663;28;20053;-38
2022/09/12 12:13:55;;;;;;;1.77;0.80;;;24.80;99.90;;;;;;20808968;28;20107;-38
2022/09/12 12:24:08;;;;;;;1.67;0.73;;;24.80;99.90;;;;;;20808282;28;20048;-38
2022/09/12 12:34:25;;;;;;;1.58;0.68;;;24.90;99.90;;;;;;20814655;28;20029;-38
2022/09/12 12:44:44;;;;;;;1.50;0.80;;;25.50;99.90;;;;;;20771954;28;20048;-38
2022/09/12 12:54:45;;;;;;;1.40;0.65;;;25.60;99.90;;;;;;20760829;28;20910;-38
2022/09/12 13:04:48;;;;;;;1.27;0.55;;;25.90;99.90;;;;;;20758853;28;20485;-38
2022/09/12 13:14:52;;;;;;;0.77;0.45;;;26.40;99.90;;;;;;20764626;28;20049;-38
2022/09/12 13:24:53;;;;;;;1.17;0.63;;;27.00;99.90;;;;;;20773674;28;20045;-38
2022/09/12 13:35:23;;;;;;;1.88;1.02;;;26.70;99.90;;;;;;20779481;28;20044;-38
2022/09/12 13:45:26;;;;;;;1.02;0.63;;;26.30;99.90;;;;;;20767944;28;20050;-38
2022/09/12 13:55:41;;;;;;;1.58;0.80;;;26.20;99.90;;;;;;20764422;28;20123;-38
2022/09/12 14:05:53;;;;;;;1.58;0.95;;;26.70;99.90;;;;;;20766136;28;20237;-38
2022/09/12 14:15:55;;;;;;;1.20;0.68;;;27.10;98.90;;;;;;20766319;28;20827;-38
2022/09/12 14:26:00;;;;;;;1.63;0.50;;;26.00;99.40;;;;;;20750729;28;20715;-38
2022/09/12 14:36:34;;;;;;;1.02;0.50;;;25.30;99.90;;;;;;20755958;28;20456;-38
2022/09/12 14:46:40;;;;;;;1.38;0.60;;;25.00;99.90;;;;;;20710157;28;20516;-38
2022/09/12 14:56:52;;;;;;;1.80;0.80;;;24.80;99.90;;;;;;20779781;28;22006;-37
2022/09/12 15:06:53;;;;;;;3.20;1.00;;;24.70;99.90;;;;;;20792940;28;20080;-37
2022/09/12 15:16:54;;;;;;;1.23;0.60;;;24.30;99.90;;;;;;20819964;28;20033;-38
2022/09/12 15:26:55;;;;;;;0.90;0.50;;;24.50;99.90;;;;;;20834034;28;20159;-37
2022/09/12 15:36:56;;;;;;;0.77;0.38;;;24.20;99.90;;;;;;20833166;28;20184;-37
2022/09/12 15:46:57;;;;;;;3.30;0.70;;;24.30;99.90;;;;;;20827478;28;20635;-38
2022/09/12 15:56:58;;;;;;;0.82;0.40;;;24.50;99.90;;;;;;20778758;28;20628;-38
2022/09/12 16:06:59;;;;;;;1.40;0.70;;;24.50;99.90;;;;;;20778122;28;20865;-38
2022/09/12 16:17:00;;;;;;;1.50;0.60;;;24.00;99.90;;;;;;20783616;28;20540;-38
2022/09/12 16:27:01;;;;;;;1.02;0.40;;;23.90;99.90;;;;;;20719975;28;20184;-38
2022/09/12 16:37:02;;;;;;;0.80;0.50;;;23.70;99.90;;;;;;20785731;28;20389;-38
2022/09/12 16:47:03;;;;;;;1.23;0.77;;;23.50;99.90;;;;;;20783245;28;20156;-38
2022/09/12 16:57:05;;;;;;;2.10;0.73;;;23.30;99.90;;;;;;20751652;28;20143;-37
2022/09/12 17:07:07;;;;;;;1.35;0.70;;;23.10;99.90;;;;;;20753921;28;20124;-37
2022/09/12 17:17:08;;;;;;;1.88;0.80;;;22.90;99.90;;;;;;20763891;28;20077;-37
2022/09/12 17:27:09;;;;;;;1.65;0.50;;;22.70;99.90;;;;;;20762696;28;20048;-37
2022/09/12 17:37:10;;;;;;;1.85;0.77;;;22.50;99.90;;;;;;20734779;28;20516;-37
2022/09/12 17:47:11;;;;;;;1.15;0.55;;;22.30;99.90;;;;;;20775448;28;20053;-38
2022/09/12 17:57:12;;;;;;;1.80;0.80;;;22.00;99.90;;;;;;20757669;28;20033;-38
2022/09/12 18:07:14;;;;;;;1.58;0.52;;;21.70;99.90;;;;;;20762682;28;20393;-37
2022/09/12 18:17:16;;;;;;;1.77;0.80;;;21.50;99.90;;;;;;20737144;28;20132;-37
2022/09/12 18:27:17;;;;;;;1.00;0.52;;;21.20;99.90;;;;;;20734475;28;20041;-37
2022/09/12 18:37:17;;;;;;;1.98;0.77;;;20.90;99.90;;;;;;20738080;28;20080;-37
2022/09/12 18:47:19;;;;;;;2.10;0.77;;;20.60;99.90;;;;;;20740950;28;20065;-37
2022/09/12 18:57:20;;;;;;;1.38;0.75;;;20.40;99.90;;;;;;20744665;28;20076;-37
2022/09/12 19:07:21;;;;;;;2.08;0.90;;;20.20;99.90;;;;;;20735475;28;20128;-37
2022/09/12 19:17:22;;;;;;;1.48;0.65;;;20.10;99.90;;;;;;20743792;28;20073;-37
2022/09/12 19:27:23;;;;;;;1.15;0.68;;;20.00;99.90;;;;;;20743326;28;20140;-37
2022/09/12 19:37:24;;;;;;;2.88;0.85;;;19.90;99.90;;;;;;20749217;28;20125;-37
2022/09/12 19:47:25;;;;;;;2.80;1.33;;;20.00;99.90;;;;;;20782895;28;20060;-37
2022/09/12 19:57:26;;;;;;;1.52;0.93;;;20.00;99.90;;;;;;20771889;28;20064;-37
2022/09/12 20:07:27;;;;;;;1.30;0.60;;;19.90;99.90;;;;;;20778388;28;20042;-37
2022/09/12 20:17:29;;;;;;;1.75;0.70;;;19.90;99.90;;;;;;20794131;28;20121;-37
2022/09/12 20:27:30;;;;;;;1.95;1.02;;;19.80;99.90;;;;;;20801872;28;20056;-37
2022/09/12 20:37:31;;;;;;;1.95;1.00;;;19.60;99.90;;;;;;20780609;28;20064;-37
2022/09/12 20:47:32;;;;;;;1.83;0.70;;;19.60;99.90;;;;;;20783238;28;20037;-37
2022/09/12 20:57:33;;;;;;;2.25;0.80;;;19.40;99.90;;;;;;20759076;28;20072;-37
2022/09/12 21:07:34;;;;;;;1.55;0.85;;;19.30;99.90;;;;;;20788530;28;20073;-37
2022/09/12 21:17:35;;;;;;;2.65;1.42;;;19.30;99.90;;;;;;20787826;28;20048;-37
2022/09/12 21:27:36;;;;;;;2.50;0.98;;;19.20;99.90;;;;;;20789806;28;20047;-37
2022/09/12 21:37:37;;;;;;;2.33;0.70;;;19.20;99.90;;;;;;20784042;28;20203;-37
2022/09/12 21:47:38;;;;;;;3.25;1.48;;;19.20;99.90;;;;;;20781886;28;20040;-37
2022/09/12 21:57:39;;;;;;;2.97;0.90;;;19.20;99.90;;;;;;20777019;28;21171;-37
2022/09/12 22:07:40;;;;;;;2.88;1.10;;;19.20;99.90;;;;;;20781145;28;20065;-37
2022/09/12 22:17:41;;;;;;;2.97;1.70;;;19.20;99.90;;;;;;20757817;28;20041;-37
2022/09/12 22:27:42;;;;;;;2.65;1.17;;;19.30;99.90;;;;;;20790471;28;20079;-38
2022/09/12 22:37:45;;;;;;;3.25;1.55;;;19.40;99.90;;;;;;20757114;28;20025;-38
2022/09/12 22:47:46;;;;;;;3.58;1.38;;;19.40;99.90;;;;;;20753293;28;20107;-36
2022/09/12 22:57:47;;;;;;;3.92;1.67;;;19.40;99.90;;;;;;20764078;28;20110;-36
2022/09/12 23:07:49;;;;;;;2.97;1.42;;;19.30;99.90;;;;;;20756403;28;20282;-36
2022/09/12 23:17:50;;;;;;;2.40;1.23;;;19.30;99.90;;;;;;20763755;28;20156;-36
2022/09/12 23:27:52;;;;;;;2.72;1.50;;;19.30;99.90;;;;;;20781469;28;20056;-36
2022/09/12 23:37:54;;;;;;;3.15;1.60;;;19.20;99.90;;;;;;20777072;28;20497;-36
2022/09/12 23:47:55;;;;;;;2.60;1.58;;;19.20;99.90;;;;;;20769334;28;20072;-36
2022/09/12 23:57:56;;;;;;;3.88;1.98;;;19.10;99.90;;;;;;20778837;28;20044;-36
